Flight Information

DEPARTURE
OLYMPIA, WA
Elevation:
207
Runways:
8/26 - 4157x150 - ASPH-G
17/35 - 5500x150 - ASPH-G
ATIS:
135.725
Ground:
121.6
Tower:
OLYMPIA TOWER 124.4
DESTINATION
,
Elevation:
TPA:
1000 (est.)


6705.2 NM65° True-20° Var44° HDG

Flight Plan:
(click to file on line)

1. Type
2. Aircraft Identification
3. Aircraft Type / Special Equipment
4. True Airspeed
kts
5. Departure Airport
(ICAO code)
6. Arriving Airport
(ICAO code)
7. Cruising Altitude
ft
8. Alternate Airport
(ICAO code)
9. Route of Flight
10. Remarks


00:00:00 Departure ATIS: Destination ATIS:

Clearance Limit:
Route:
Altitude: Expect in minutes
Frequency:
Transponder: (7500 Hijack / 7600 Lost Comms / 7700 Emergency)


KOLM 281154Z AUTO 13003KT 10SM CLR 08/07 A3037 RMK AO2 SLP283 T00780067 10111 20067 57014
Time: 2020-09-28T11:54:00Z
1601297117
Winds: 130 @ 3 kts
Visibility: 10.0 sm
Clouds (AGL): CLR
Temperature: 7.8 C
Dew Point: 6.7 C
Pressure: 30.369095 in Hgbr


Notes:

Data extracted from FAA Digital Chart Supplement. Effective: 0901Z Thursday, Sep 10, 2020 to 0901Z Thursday, Nov 5, 2020
Current ATIS data is provided courtisy of PilotEdge.